Novomar — 5BCT2 — position and weather

sailwx.info

Track history (hours):
 
Tides and Currents Weather Stations Pressure Air Temp Water Temp Dewpoint Dewpoint Depression Visibility Wind Speed Wind Dir Waves Ship Positions

Novomar

Last reported at 2015-May-23 20:21 UTC. Time now 2015-May-26 13:55 UTC.
Position N 50°32' W 000°02'.

Length 89 m; draft 5.3 m.

Type: Cargo ship. MMSI: 210974000.

Date/timePositionNaut miles runAvg speedWind from/ knotsBaromVisibWave heightAir tempDewpointWater temp
2015-May-23 20:21N 50°32' W 000°02'1211.4
2015-May-23 19:18N 50°35' E 000°17'911.7
2015-May-23 18:33N 50°38' E 000°30'1111.2
2015-May-23 17:33N 50°43' E 000°45'22 9.9
2015-May-23 15:23N 50°56' E 001°12'7 8.9
2015-May-23 14:33N 51°01' E 001°21'1010.2
2015-May-23 13:33N 51°08' E 001°34'1211.5
2015-May-23 12:33N 51°16' E 001°47'1312.7
2015-May-23 11:33N 51°27' E 001°56'13810.4
2015-May-22 22:17N 53°11' E 004°24'7 9.4
2015-May-22 21:33N 53°17' E 004°29'17 8.3
2015-May-22 19:33N 53°30' E 004°45'9 8.8
2015-May-22 18:33N 53°33' E 004°59'1010.3
2015-May-22 17:33N 53°36' E 005°15'1111.0
2015-May-22 16:33N 53°40' E 005°33'1110.9
2015-May-22 15:33N 53°43' E 005°50'2110.2
2015-May-22 13:31N 53°50' E 006°24'9 9.3
2015-May-22 12:33N 53°52' E 006°38'20 8.6
2015-May-22 10:12N 53°57' E 007°12'6 8.6
2015-May-22 09:33N 53°59' E 007°21'9 9.3
2015-May-22 08:33N 54°01' E 007°36'1010.2
2015-May-22 07:33N 54°02' E 007°53'1110.7
2015-May-22 06:34N 54°00' E 008°11'1212.3
2015-May-22 05:33N 53°58' E 008°32'1111.4
2015-May-22 04:33N 53°51' E 008°46'9 8.9
2015-May-22 03:33N 53°52' E 009°01'5 4.8
2015-May-22 02:33N 53°54' E 009°09'5 4.9
2015-May-22 01:33N 53°57' E 009°14'6 5.7
2015-May-22 00:33N 54°02' E 009°18'20 6.7
2015-May-21 21:33N 54°18' E 009°41'7 6.7
2015-May-21 20:33N 54°22' E 009°50'7 7.3
2015-May-21 19:33N 54°22' E 010°02'3 2.4
2015-May-21 18:18N 54°22' E 010°08'0 0.7
2015-May-21 17:33N 54°22' E 010°08'1 1.0
2015-May-21 16:33N 54°22' E 010°10'9 8.8
2015-May-21 15:33N 54°30' E 010°18'8 7.5
2015-May-21 14:33N 54°33' E 010°29'2010.0
2015-May-21 12:33N 54°36' E 011°04'1010.2
2015-May-21 11:33N 54°33' E 011°21'1110.8
2015-May-21 10:33N 54°29' E 011°37'1010.4
2015-May-21 09:33N 54°26' E 011°55'9 9.5
2015-May-21 08:33N 54°29' E 012°10'29 9.6
2015-May-21 05:32N 54°48' E 012°47'4310.1
2015-May-21 01:17N 55°03' E 013°58'30 9.9
2015-May-20 22:13N 55°25' E 014°34'1010.2
2015-May-20 21:15N 55°31' E 014°48'1910.3
2015-May-20 19:23N 55°40' E 015°17'1410.4
2015-May-20 18:03N 55°47' E 015°39'94 9.6
2015-May-20 08:16N 57°04' E 017°16'710.0
2015-May-20 07:31N 57°11' E 017°20'1010.0
2015-May-20 06:33N 57°21' E 017°22'  
2015-May-14 19:33N 55°45' E 015°47'1010.0
2015-May-14 18:33N 55°40' E 015°32'1010.2
2015-May-14 17:33N 55°35' E 015°16'1010.5
2015-May-14 16:33N 55°30' E 014°60'1110.5
2015-May-14 15:33N 55°25' E 014°43'10 9.9
2015-May-14 14:33N 55°18' E 014°31'1010.1
2015-May-14 13:33N 55°10' E 014°20'5010.0
2015-May-14 08:32N 55°15' E 012°52'9 9.3
2015-May-14 07:33N 55°19' E 012°38'10 9.6
2015-May-14 06:33N 55°29' E 012°41'10 9.9
2015-May-14 05:33N 55°39' E 012°41'1010.1
2015-May-14 04:33N 55°49' E 012°40'1010.0
2015-May-14 03:33N 55°59' E 012°38'9 8.9
2015-May-14 02:33N 56°07' E 012°31'1010.1
2015-May-14 01:33N 56°12' E 012°16'11 9.6
2015-May-14 00:24N 56°10' E 011°56'  
Track history (hours):
 
Tides and Currents Weather Stations Pressure Air Temp Water Temp Dewpoint Dewpoint Depression Visibility Wind Speed Wind Dir Waves Ship Positions

Novomar

Last reported at 2015-May-23 20:21 UTC. Time now 2015-May-26 13:55 UTC.
Position N 50°32' W 000°02'.

Length 89 m; draft 5.3 m.

Type: Cargo ship. MMSI: 210974000.

Date/timePositionNaut miles runAvg speedWind from/ knotsBaromVisibWave heightAir tempDewpointWater temp
2015-May-23 20:21N 50°32' W 000°02'1211.4
2015-May-23 19:18N 50°35' E 000°17'911.7
2015-May-23 18:33N 50°38' E 000°30'1111.2
2015-May-23 17:33N 50°43' E 000°45'22 9.9
2015-May-23 15:23N 50°56' E 001°12'7 8.9
2015-May-23 14:33N 51°01' E 001°21'1010.2
2015-May-23 13:33N 51°08' E 001°34'1211.5
2015-May-23 12:33N 51°16' E 001°47'1312.7
2015-May-23 11:33N 51°27' E 001°56'13810.4
2015-May-22 22:17N 53°11' E 004°24'7 9.4
2015-May-22 21:33N 53°17' E 004°29'17 8.3
2015-May-22 19:33N 53°30' E 004°45'9 8.8
2015-May-22 18:33N 53°33' E 004°59'1010.3
2015-May-22 17:33N 53°36' E 005°15'1111.0
2015-May-22 16:33N 53°40' E 005°33'1110.9
2015-May-22 15:33N 53°43' E 005°50'2110.2
2015-May-22 13:31N 53°50' E 006°24'9 9.3
2015-May-22 12:33N 53°52' E 006°38'20 8.6
2015-May-22 10:12N 53°57' E 007°12'6 8.6
2015-May-22 09:33N 53°59' E 007°21'9 9.3
2015-May-22 08:33N 54°01' E 007°36'1010.2
2015-May-22 07:33N 54°02' E 007°53'1110.7
2015-May-22 06:34N 54°00' E 008°11'1212.3
2015-May-22 05:33N 53°58' E 008°32'1111.4
2015-May-22 04:33N 53°51' E 008°46'9 8.9
2015-May-22 03:33N 53°52' E 009°01'5 4.8
2015-May-22 02:33N 53°54' E 009°09'5 4.9
2015-May-22 01:33N 53°57' E 009°14'6 5.7
2015-May-22 00:33N 54°02' E 009°18'20 6.7
2015-May-21 21:33N 54°18' E 009°41'7 6.7
2015-May-21 20:33N 54°22' E 009°50'7 7.3
2015-May-21 19:33N 54°22' E 010°02'3 2.4
2015-May-21 18:18N 54°22' E 010°08'0 0.7
2015-May-21 17:33N 54°22' E 010°08'1 1.0
2015-May-21 16:33N 54°22' E 010°10'9 8.8
2015-May-21 15:33N 54°30' E 010°18'8 7.5
2015-May-21 14:33N 54°33' E 010°29'2010.0
2015-May-21 12:33N 54°36' E 011°04'1010.2
2015-May-21 11:33N 54°33' E 011°21'1110.8
2015-May-21 10:33N 54°29' E 011°37'1010.4
2015-May-21 09:33N 54°26' E 011°55'9 9.5
2015-May-21 08:33N 54°29' E 012°10'29 9.6
2015-May-21 05:32N 54°48' E 012°47'4310.1
2015-May-21 01:17N 55°03' E 013°58'30 9.9
2015-May-20 22:13N 55°25' E 014°34'1010.2
2015-May-20 21:15N 55°31' E 014°48'1910.3
2015-May-20 19:23N 55°40' E 015°17'1410.4
2015-May-20 18:03N 55°47' E 015°39'94 9.6
2015-May-20 08:16N 57°04' E 017°16'710.0
2015-May-20 07:31N 57°11' E 017°20'1010.0
2015-May-20 06:33N 57°21' E 017°22'  
2015-May-14 19:33N 55°45' E 015°47'1010.0
2015-May-14 18:33N 55°40' E 015°32'1010.2
2015-May-14 17:33N 55°35' E 015°16'1010.5
2015-May-14 16:33N 55°30' E 014°60'1110.5
2015-May-14 15:33N 55°25' E 014°43'10 9.9
2015-May-14 14:33N 55°18' E 014°31'1010.1
2015-May-14 13:33N 55°10' E 014°20'5010.0
2015-May-14 08:32N 55°15' E 012°52'9 9.3
2015-May-14 07:33N 55°19' E 012°38'10 9.6
2015-May-14 06:33N 55°29' E 012°41'10 9.9
2015-May-14 05:33N 55°39' E 012°41'1010.1
2015-May-14 04:33N 55°49' E 012°40'1010.0
2015-May-14 03:33N 55°59' E 012°38'9 8.9
2015-May-14 02:33N 56°07' E 012°31'1010.1
2015-May-14 01:33N 56°12' E 012°16'11 9.6
2015-May-14 00:24N 56°10' E 011°56'  

Dump ship's entire track history